sensor_id;sensor_type;location;lat;lon;timestamp;temperature;humidity
4054;DHT22;2042;47.956;9.222;2022-10-20T00:01:06;12.70;21.10
4054;DHT22;2042;47.956;9.222;2022-10-20T00:03:31;12.70;21.20
4054;DHT22;2042;47.956;9.222;2022-10-20T00:06:09;12.70;21.30
4054;DHT22;2042;47.956;9.222;2022-10-20T00:08:35;12.70;21.50
4054;DHT22;2042;47.956;9.222;2022-10-20T00:11:01;12.70;21.60
4054;DHT22;2042;47.956;9.222;2022-10-20T00:13:27;12.70;21.80
4054;DHT22;2042;47.956;9.222;2022-10-20T00:15:54;12.70;22.00
4054;DHT22;2042;47.956;9.222;2022-10-20T00:18:21;12.70;22.10
4054;DHT22;2042;47.956;9.222;2022-10-20T00:20:47;12.70;22.20
4054;DHT22;2042;47.956;9.222;2022-10-20T00:23:13;12.70;22.20
4054;DHT22;2042;47.956;9.222;2022-10-20T00:25:39;12.70;22.80
4054;DHT22;2042;47.956;9.222;2022-10-20T00:28:05;12.70;22.40
4054;DHT22;2042;47.956;9.222;2022-10-20T00:30:32;12.70;22.40
4054;DHT22;2042;47.956;9.222;2022-10-20T00:32:58;12.60;22.60
4054;DHT22;2042;47.956;9.222;2022-10-20T00:35:23;12.60;22.70
4054;DHT22;2042;47.956;9.222;2022-10-20T00:37:49;12.60;22.80
4054;DHT22;2042;47.956;9.222;2022-10-20T00:40:15;12.60;22.80
4054;DHT22;2042;47.956;9.222;2022-10-20T00:42:44;12.60;22.90
4054;DHT22;2042;47.956;9.222;2022-10-20T00:45:19;12.60;22.90
4054;DHT22;2042;47.956;9.222;2022-10-20T00:47:54;12.60;23.00
4054;DHT22;2042;47.956;9.222;2022-10-20T00:50:25;12.50;23.00
4054;DHT22;2042;47.956;9.222;2022-10-20T00:52:53;12.60;23.20
4054;DHT22;2042;47.956;9.222;2022-10-20T00:55:23;12.60;23.20
4054;DHT22;2042;47.956;9.222;2022-10-20T00:57:51;12.50;23.30
4054;DHT22;2042;47.956;9.222;2022-10-20T01:00:19;12.50;23.30
4054;DHT22;2042;47.956;9.222;2022-10-20T01:02:44;12.50;23.40
4054;DHT22;2042;47.956;9.222;2022-10-20T01:05:12;12.50;23.40
4054;DHT22;2042;47.956;9.222;2022-10-20T01:07:38;12.50;23.50
4054;DHT22;2042;47.956;9.222;2022-10-20T01:10:05;12.50;23.60
4054;DHT22;2042;47.956;9.222;2022-10-20T01:15:37;12.50;23.80
4054;DHT22;2042;47.956;9.222;2022-10-20T01:18:32;12.50;23.90
4054;DHT22;2042;47.956;9.222;2022-10-20T01:26:41;12.50;24.20
4054;DHT22;2042;47.956;9.222;2022-10-20T01:29:27;12.50;24.30
4054;DHT22;2042;47.956;9.222;2022-10-20T01:34:41;12.50;24.50
4054;DHT22;2042;47.956;9.222;2022-10-20T01:37:18;12.50;24.60
4054;DHT22;2042;47.956;9.222;2022-10-20T01:39:52;12.50;24.60
4054;DHT22;2042;47.956;9.222;2022-10-20T01:42:22;12.50;24.70
4054;DHT22;2042;47.956;9.222;2022-10-20T01:44:50;12.50;24.70
4054;DHT22;2042;47.956;9.222;2022-10-20T01:47:19;12.40;24.50
4054;DHT22;2042;47.956;9.222;2022-10-20T01:49:47;12.40;24.50
4054;DHT22;2042;47.956;9.222;2022-10-20T01:52:14;12.40;24.60
4054;DHT22;2042;47.956;9.222;2022-10-20T01:54:40;12.30;24.50
4054;DHT22;2042;47.956;9.222;2022-10-20T02:00:06;12.30;24.80
4054;DHT22;2042;47.956;9.222;2022-10-20T02:08:44;12.30;25.10
4054;DHT22;2042;47.956;9.222;2022-10-20T02:11:29;12.30;25.10
4054;DHT22;2042;47.956;9.222;2022-10-20T02:13:57;12.30;25.30
4054;DHT22;2042;47.956;9.222;2022-10-20T02:16:30;12.30;25.30
4054;DHT22;2042;47.956;9.222;2022-10-20T02:18:57;12.30;25.30
4054;DHT22;2042;47.956;9.222;2022-10-20T02:21:24;12.30;25.40
4054;DHT22;2042;47.956;9.222;2022-10-20T02:23:51;12.30;25.40
4054;DHT22;2042;47.956;9.222;2022-10-20T02:26:20;12.30;25.40
4054;DHT22;2042;47.956;9.222;2022-10-20T02:28:51;12.30;25.40
4054;DHT22;2042;47.956;9.222;2022-10-20T02:31:19;12.30;25.40
4054;DHT22;2042;47.956;9.222;2022-10-20T02:33:45;12.20;25.40
4054;DHT22;2042;47.956;9.222;2022-10-20T02:36:16;12.20;25.40
4054;DHT22;2042;47.956;9.222;2022-10-20T02:38:42;12.20;25.40
4054;DHT22;2042;47.956;9.222;2022-10-20T02:41:08;12.20;25.40
4054;DHT22;2042;47.956;9.222;2022-10-20T02:43:34;12.20;25.40
4054;DHT22;2042;47.956;9.222;2022-10-20T02:45:59;12.20;25.40
4054;DHT22;2042;47.956;9.222;2022-10-20T02:48:25;12.10;25.40
4054;DHT22;2042;47.956;9.222;2022-10-20T02:50:50;12.10;25.40
4054;DHT22;2042;47.956;9.222;2022-10-20T02:53:16;12.10;25.40
4054;DHT22;2042;47.956;9.222;2022-10-20T02:55:42;12.10;25.40
4054;DHT22;2042;47.956;9.222;2022-10-20T02:58:08;12.10;25.40
4054;DHT22;2042;47.956;9.222;2022-10-20T03:00:34;12.10;25.40
4054;DHT22;2042;47.956;9.222;2022-10-20T03:03:00;12.10;25.50
4054;DHT22;2042;47.956;9.222;2022-10-20T03:05:25;12.20;25.60
4054;DHT22;2042;47.956;9.222;2022-10-20T03:07:54;12.10;25.50
4054;DHT22;2042;47.956;9.222;2022-10-20T03:10:20;12.10;25.60
4054;DHT22;2042;47.956;9.222;2022-10-20T03:12:46;12.10;25.60
4054;DHT22;2042;47.956;9.222;2022-10-20T03:15:11;12.10;25.70
4054;DHT22;2042;47.956;9.222;2022-10-20T03:17:37;12.10;25.80
4054;DHT22;2042;47.956;9.222;2022-10-20T03:20:04;12.10;25.80
4054;DHT22;2042;47.956;9.222;2022-10-20T03:22:29;12.10;25.80
4054;DHT22;2042;47.956;9.222;2022-10-20T03:24:55;12.10;25.90
4054;DHT22;2042;47.956;9.222;2022-10-20T03:27:21;12.10;26.00
4054;DHT22;2042;47.956;9.222;2022-10-20T03:29:46;12.10;26.00
4054;DHT22;2042;47.956;9.222;2022-10-20T03:32:12;12.10;26.10
4054;DHT22;2042;47.956;9.222;2022-10-20T03:34:38;12.10;26.10
4054;DHT22;2042;47.956;9.222;2022-10-20T03:37:04;12.10;26.20
4054;DHT22;2042;47.956;9.222;2022-10-20T03:39:29;12.10;26.30
4054;DHT22;2042;47.956;9.222;2022-10-20T03:41:55;12.10;26.30
4054;DHT22;2042;47.956;9.222;2022-10-20T03:44:22;12.10;26.40
4054;DHT22;2042;47.956;9.222;2022-10-20T03:46:48;12.10;26.40
4054;DHT22;2042;47.956;9.222;2022-10-20T03:49:13;12.10;26.40
4054;DHT22;2042;47.956;9.222;2022-10-20T03:51:39;12.10;26.40
4054;DHT22;2042;47.956;9.222;2022-10-20T03:54:05;12.10;26.40
4054;DHT22;2042;47.956;9.222;2022-10-20T03:56:30;12.10;26.50
4054;DHT22;2042;47.956;9.222;2022-10-20T03:58:56;12.10;26.50
4054;DHT22;2042;47.956;9.222;2022-10-20T04:01:29;12.10;26.50
4054;DHT22;2042;47.956;9.222;2022-10-20T04:03:55;12.10;26.50
4054;DHT22;2042;47.956;9.222;2022-10-20T04:06:20;12.00;26.50
4054;DHT22;2042;47.956;9.222;2022-10-20T04:08:46;12.00;26.40
4054;DHT22;2042;47.956;9.222;2022-10-20T04:11:15;11.90;26.40
4054;DHT22;2042;47.956;9.222;2022-10-20T04:13:40;11.90;26.30
4054;DHT22;2042;47.956;9.222;2022-10-20T06:16:04;11.70;41.80
4054;DHT22;2042;47.956;9.222;2022-10-20T06:18:31;11.70;25.10
4054;DHT22;2042;47.956;9.222;2022-10-20T06:21:01;11.60;25.20
4054;DHT22;2042;47.956;9.222;2022-10-20T06:23:27;11.60;25.40
4054;DHT22;2042;47.956;9.222;2022-10-20T06:25:53;11.60;25.50
4054;DHT22;2042;47.956;9.222;2022-10-20T06:28:19;11.60;25.60
4054;DHT22;2042;47.956;9.222;2022-10-20T06:30:44;11.60;25.70
4054;DHT22;2042;47.956;9.222;2022-10-20T06:33:10;11.60;25.80
4054;DHT22;2042;47.956;9.222;2022-10-20T06:35:40;11.60;25.80
4054;DHT22;2042;47.956;9.222;2022-10-20T06:38:05;11.70;25.90
4054;DHT22;2042;47.956;9.222;2022-10-20T06:40:32;11.70;26.10
4054;DHT22;2042;47.956;9.222;2022-10-20T06:42:58;11.80;26.30
4054;DHT22;2042;47.956;9.222;2022-10-20T06:45:23;11.90;26.50
4054;DHT22;2042;47.956;9.222;2022-10-20T06:47:49;12.00;26.80
4054;DHT22;2042;47.956;9.222;2022-10-20T06:50:15;12.10;26.90
4054;DHT22;2042;47.956;9.222;2022-10-20T06:52:40;12.20;27.10
4054;DHT22;2042;47.956;9.222;2022-10-20T06:55:06;12.20;27.00
4054;DHT22;2042;47.956;9.222;2022-10-20T06:57:32;12.30;27.10
4054;DHT22;2042;47.956;9.222;2022-10-20T06:59:58;12.30;27.00
4054;DHT22;2042;47.956;9.222;2022-10-20T07:02:24;12.30;27.10
4054;DHT22;2042;47.956;9.222;2022-10-20T07:04:49;12.40;26.90
4054;DHT22;2042;47.956;9.222;2022-10-20T07:07:15;12.40;26.90
4054;DHT22;2042;47.956;9.222;2022-10-20T07:09:40;12.40;26.80
4054;DHT22;2042;47.956;9.222;2022-10-20T07:12:06;12.40;26.70
4054;DHT22;2042;47.956;9.222;2022-10-20T07:14:32;12.50;26.70
4054;DHT22;2042;47.956;9.222;2022-10-20T07:17:02;12.50;26.60
4054;DHT22;2042;47.956;9.222;2022-10-20T07:19:27;12.50;26.20
4054;DHT22;2042;47.956;9.222;2022-10-20T07:21:53;12.50;26.20
4054;DHT22;2042;47.956;9.222;2022-10-20T07:24:18;12.50;26.20
4054;DHT22;2042;47.956;9.222;2022-10-20T07:26:44;12.50;26.20
4054;DHT22;2042;47.956;9.222;2022-10-20T07:29:11;12.50;25.90
4054;DHT22;2042;47.956;9.222;2022-10-20T07:31:43;12.50;25.70
4054;DHT22;2042;47.956;9.222;2022-10-20T07:34:11;12.40;25.30
4054;DHT22;2042;47.956;9.222;2022-10-20T07:36:38;12.30;24.30
4054;DHT22;2042;47.956;9.222;2022-10-20T07:39:05;12.30;24.30
4054;DHT22;2042;47.956;9.222;2022-10-20T07:41:32;12.30;24.40
4054;DHT22;2042;47.956;9.222;2022-10-20T07:43:58;12.30;24.60
4054;DHT22;2042;47.956;9.222;2022-10-20T07:46:24;12.40;24.90
4054;DHT22;2042;47.956;9.222;2022-10-20T07:48:50;12.40;25.00
4054;DHT22;2042;47.956;9.222;2022-10-20T07:53:51;12.50;25.00
4054;DHT22;2042;47.956;9.222;2022-10-20T07:56:17;12.60;25.40
4054;DHT22;2042;47.956;9.222;2022-10-20T07:58:42;12.70;24.70
4054;DHT22;2042;47.956;9.222;2022-10-20T08:01:09;12.80;24.00
4054;DHT22;2042;47.956;9.222;2022-10-20T08:03:35;12.80;23.10
4054;DHT22;2042;47.956;9.222;2022-10-20T08:06:01;12.90;23.50
4054;DHT22;2042;47.956;9.222;2022-10-20T08:08:27;13.00;23.20
4054;DHT22;2042;47.956;9.222;2022-10-20T08:10:53;13.10;21.70
4054;DHT22;2042;47.956;9.222;2022-10-20T08:13:19;13.10;18.60
4054;DHT22;2042;47.956;9.222;2022-10-20T08:15:45;13.00;15.70
4054;DHT22;2042;47.956;9.222;2022-10-20T08:18:10;13.10;15.00
4054;DHT22;2042;47.956;9.222;2022-10-20T08:20:36;13.10;13.50
4054;DHT22;2042;47.956;9.222;2022-10-20T08:23:02;13.20;11.50
4054;DHT22;2042;47.956;9.222;2022-10-20T08:25:28;13.30;11.30
4054;DHT22;2042;47.956;9.222;2022-10-20T08:27:53;13.40;8.50
4054;DHT22;2042;47.956;9.222;2022-10-20T08:30:19;13.50;3.90
4054;DHT22;2042;47.956;9.222;2022-10-20T08:32:44;13.50;1.00
4054;DHT22;2042;47.956;9.222;2022-10-20T08:35:10;13.50;1.00
4054;DHT22;2042;47.956;9.222;2022-10-20T08:37:36;13.40;1.00
4054;DHT22;2042;47.956;9.222;2022-10-20T08:40:05;13.40;1.00
4054;DHT22;2042;47.956;9.222;2022-10-20T08:42:38;13.50;1.00
4054;DHT22;2042;47.956;9.222;2022-10-20T08:45:05;13.50;1.00
4054;DHT22;2042;47.956;9.222;2022-10-20T08:47:35;13.60;1.00
4054;DHT22;2042;47.956;9.222;2022-10-20T08:50:05;13.60;1.00
4054;DHT22;2042;47.956;9.222;2022-10-20T08:52:33;13.60;1.00
4054;DHT22;2042;47.956;9.222;2022-10-20T08:55:00;13.70;1.00
4054;DHT22;2042;47.956;9.222;2022-10-20T08:57:29;13.80;3.10
4054;DHT22;2042;47.956;9.222;2022-10-20T09:17:38;15.20;1.00
4054;DHT22;2042;47.956;9.222;2022-10-20T09:20:05;15.20;1.00
4054;DHT22;2042;47.956;9.222;2022-10-20T09:22:36;15.30;1.00
4054;DHT22;2042;47.956;9.222;2022-10-20T09:25:03;15.20;1.00
4054;DHT22;2042;47.956;9.222;2022-10-20T09:27:35;15.00;1.00
4054;DHT22;2042;47.956;9.222;2022-10-20T09:30:42;14.80;1.00
4054;DHT22;2042;47.956;9.222;2022-10-20T09:35:53;14.30;1.00
4054;DHT22;2042;47.956;9.222;2022-10-20T09:38:26;14.30;1.00
4054;DHT22;2042;47.956;9.222;2022-10-20T09:43:24;14.30;1.00
4054;DHT22;2042;47.956;9.222;2022-10-20T09:46:11;14.20;1.00
4054;DHT22;2042;47.956;9.222;2022-10-20T09:48:45;14.20;1.00
4054;DHT22;2042;47.956;9.222;2022-10-20T09:51:14;14.20;1.00
4054;DHT22;2042;47.956;9.222;2022-10-20T09:56:46;14.40;1.00
4054;DHT22;2042;47.956;9.222;2022-10-20T09:59:32;14.40;1.00
4054;DHT22;2042;47.956;9.222;2022-10-20T10:02:24;14.50;1.00
4054;DHT22;2042;47.956;9.222;2022-10-20T10:04:52;14.70;1.00
4054;DHT22;2042;47.956;9.222;2022-10-20T10:09:57;14.80;1.00
4054;DHT22;2042;47.956;9.222;2022-10-20T10:12:25;14.80;1.00
4054;DHT22;2042;47.956;9.222;2022-10-20T10:14:52;15.00;1.00
4054;DHT22;2042;47.956;9.222;2022-10-20T10:17:34;15.00;1.00
4054;DHT22;2042;47.956;9.222;2022-10-20T10:20:06;15.10;1.00
4054;DHT22;2042;47.956;9.222;2022-10-20T10:22:49;15.30;1.00
4054;DHT22;2042;47.956;9.222;2022-10-20T10:25:24;15.40;1.00
4054;DHT22;2042;47.956;9.222;2022-10-20T10:28:04;15.60;1.00
4054;DHT22;2042;47.956;9.222;2022-10-20T10:30:34;15.90;1.00
4054;DHT22;2042;47.956;9.222;2022-10-20T10:33:00;16.10;1.00
4054;DHT22;2042;47.956;9.222;2022-10-20T10:35:41;16.20;1.00
4054;DHT22;2042;47.956;9.222;2022-10-20T10:38:11;16.40;1.00
4054;DHT22;2042;47.956;9.222;2022-10-20T10:56:43;17.30;1.00
4054;DHT22;2042;47.956;9.222;2022-10-20T11:02:38;17.60;1.00
4054;DHT22;2042;47.956;9.222;2022-10-20T11:10:41;17.60;1.00
4054;DHT22;2042;47.956;9.222;2022-10-20T11:15:58;17.30;1.00
4054;DHT22;2042;47.956;9.222;2022-10-20T11:24:41;16.90;1.00
4054;DHT22;2042;47.956;9.222;2022-10-20T11:27:19;16.80;1.00
4054;DHT22;2042;47.956;9.222;2022-10-20T11:41:16;17.30;1.00
4054;DHT22;2042;47.956;9.222;2022-10-20T11:46:32;17.80;1.00
4054;DHT22;2042;47.956;9.222;2022-10-20T11:48:59;17.80;1.00
4054;DHT22;2042;47.956;9.222;2022-10-20T12:02:47;16.80;1.00
4054;DHT22;2042;47.956;9.222;2022-10-20T12:08:32;16.70;1.00
4054;DHT22;2042;47.956;9.222;2022-10-20T12:11:29;16.60;1.00
4054;DHT22;2042;47.956;9.222;2022-10-20T12:19:20;16.50;1.00
4054;DHT22;2042;47.956;9.222;2022-10-20T12:25:10;16.20;1.00
4054;DHT22;2042;47.956;9.222;2022-10-20T12:27:28;16.20;1.00
4054;DHT22;2042;47.956;9.222;2022-10-20T12:30:13;16.30;1.00
4054;DHT22;2042;47.956;9.222;2022-10-20T12:37:53;16.40;1.00
4054;DHT22;2042;47.956;9.222;2022-10-20T12:42:52;16.50;1.00
4054;DHT22;2042;47.956;9.222;2022-10-20T12:47:50;16.70;1.00
4054;DHT22;2042;47.956;9.222;2022-10-20T12:50:42;16.70;1.00
4054;DHT22;2042;47.956;9.222;2022-10-20T12:53:10;16.70;1.00
4054;DHT22;2042;47.956;9.222;2022-10-20T12:55:37;16.60;1.00
4054;DHT22;2042;47.956;9.222;2022-10-20T12:58:29;16.40;1.00
4054;DHT22;2042;47.956;9.222;2022-10-20T13:03:36;16.20;1.00
4054;DHT22;2042;47.956;9.222;2022-10-20T13:11:56;16.40;1.00
4054;DHT22;2042;47.956;9.222;2022-10-20T13:17:33;16.60;1.00
4054;DHT22;2042;47.956;9.222;2022-10-20T13:20:16;16.60;1.00
4054;DHT22;2042;47.956;9.222;2022-10-20T13:22:48;16.60;1.00
4054;DHT22;2042;47.956;9.222;2022-10-20T13:36:17;16.70;1.00
4054;DHT22;2042;47.956;9.222;2022-10-20T13:38:54;16.80;1.00
4054;DHT22;2042;47.956;9.222;2022-10-20T13:41:54;16.80;1.00
4054;DHT22;2042;47.956;9.222;2022-10-20T13:44:29;16.80;1.00
4054;DHT22;2042;47.956;9.222;2022-10-20T13:49:58;16.60;1.00
4054;DHT22;2042;47.956;9.222;2022-10-20T13:52:27;16.50;1.00
4054;DHT22;2042;47.956;9.222;2022-10-20T13:54:55;16.30;1.00
4054;DHT22;2042;47.956;9.222;2022-10-20T13:57:29;16.20;1.00
4054;DHT22;2042;47.956;9.222;2022-10-20T14:00:13;16.10;1.00
4054;DHT22;2042;47.956;9.222;2022-10-20T14:02:40;16.10;1.00
4054;DHT22;2042;47.956;9.222;2022-10-20T14:05:19;16.00;1.00
4054;DHT22;2042;47.956;9.222;2022-10-20T14:07:45;16.10;1.00
4054;DHT22;2042;47.956;9.222;2022-10-20T14:12:45;16.10;1.00
4054;DHT22;2042;47.956;9.222;2022-10-20T14:15:18;16.00;1.00
4054;DHT22;2042;47.956;9.222;2022-10-20T14:18:05;16.00;1.00
4054;DHT22;2042;47.956;9.222;2022-10-20T14:20:33;15.90;1.00
4054;DHT22;2042;47.956;9.222;2022-10-20T14:23:01;15.80;1.00
4054;DHT22;2042;47.956;9.222;2022-10-20T14:25:27;15.60;1.00
4054;DHT22;2042;47.956;9.222;2022-10-20T14:27:55;15.50;1.00
4054;DHT22;2042;47.956;9.222;2022-10-20T14:30:22;15.40;1.00
4054;DHT22;2042;47.956;9.222;2022-10-20T14:32:49;15.40;1.00
4054;DHT22;2042;47.956;9.222;2022-10-20T14:38:25;15.20;1.00
4054;DHT22;2042;47.956;9.222;2022-10-20T14:40:55;15.00;1.00
4054;DHT22;2042;47.956;9.222;2022-10-20T14:46:07;15.00;1.00
4054;DHT22;2042;47.956;9.222;2022-10-20T14:48:43;15.00;1.00
4054;DHT22;2042;47.956;9.222;2022-10-20T14:56:46;14.90;1.00
4054;DHT22;2042;47.956;9.222;2022-10-20T14:59:14;14.80;1.00
4054;DHT22;2042;47.956;9.222;2022-10-20T15:01:40;14.80;1.00
4054;DHT22;2042;47.956;9.222;2022-10-20T15:04:22;14.70;1.00
4054;DHT22;2042;47.956;9.222;2022-10-20T15:06:48;14.70;1.00
4054;DHT22;2042;47.956;9.222;2022-10-20T15:09:47;14.80;1.00
4054;DHT22;2042;47.956;9.222;2022-10-20T15:14:52;14.70;1.00
4054;DHT22;2042;47.956;9.222;2022-10-20T15:20:28;14.70;1.00
4054;DHT22;2042;47.956;9.222;2022-10-20T15:25:35;14.70;1.00
4054;DHT22;2042;47.956;9.222;2022-10-20T15:28:04;14.60;1.00
4054;DHT22;2042;47.956;9.222;2022-10-20T15:30:30;14.60;1.00
4054;DHT22;2042;47.956;9.222;2022-10-20T15:32:56;14.60;1.00
4054;DHT22;2042;47.956;9.222;2022-10-20T15:35:22;14.50;1.00
4054;DHT22;2042;47.956;9.222;2022-10-20T15:37:52;14.50;1.00
4054;DHT22;2042;47.956;9.222;2022-10-20T15:40:19;14.50;1.00
4054;DHT22;2042;47.956;9.222;2022-10-20T15:42:45;14.40;1.00
4054;DHT22;2042;47.956;9.222;2022-10-20T15:45:17;14.40;1.00
4054;DHT22;2042;47.956;9.222;2022-10-20T15:47:43;14.40;1.00
4054;DHT22;2042;47.956;9.222;2022-10-20T15:50:09;14.40;1.00
4054;DHT22;2042;47.956;9.222;2022-10-20T15:52:35;14.40;1.00
4054;DHT22;2042;47.956;9.222;2022-10-20T15:58:10;14.30;1.00
4054;DHT22;2042;47.956;9.222;2022-10-20T16:00:36;14.20;1.00
4054;DHT22;2042;47.956;9.222;2022-10-20T16:03:02;14.10;1.00
4054;DHT22;2042;47.956;9.222;2022-10-20T16:05:28;14.10;1.00
4054;DHT22;2042;47.956;9.222;2022-10-20T16:07:54;14.00;1.00
4054;DHT22;2042;47.956;9.222;2022-10-20T16:10:25;14.00;1.00
4054;DHT22;2042;47.956;9.222;2022-10-20T16:12:54;13.90;1.00
4054;DHT22;2042;47.956;9.222;2022-10-20T16:15:20;13.80;1.00
4054;DHT22;2042;47.956;9.222;2022-10-20T16:17:46;13.80;1.00
4054;DHT22;2042;47.956;9.222;2022-10-20T16:20:12;13.70;1.00
4054;DHT22;2042;47.956;9.222;2022-10-20T16:27:31;13.50;1.00
4054;DHT22;2042;47.956;9.222;2022-10-20T16:29:58;13.50;1.00
4054;DHT22;2042;47.956;9.222;2022-10-20T16:32:24;13.40;1.00
4054;DHT22;2042;47.956;9.222;2022-10-20T16:34:50;13.30;1.00
4054;DHT22;2042;47.956;9.222;2022-10-20T16:37:15;13.30;1.00
4054;DHT22;2042;47.956;9.222;2022-10-20T16:39:41;13.20;1.00
4054;DHT22;2042;47.956;9.222;2022-10-20T16:42:07;13.10;1.00
4054;DHT22;2042;47.956;9.222;2022-10-20T16:44:32;13.10;1.00
4054;DHT22;2042;47.956;9.222;2022-10-20T16:46:58;13.10;1.70
4054;DHT22;2042;47.956;9.222;2022-10-20T16:49:24;13.00;2.60
4054;DHT22;2042;47.956;9.222;2022-10-20T16:51:50;12.90;3.20
4054;DHT22;2042;47.956;9.222;2022-10-20T16:54:16;12.80;4.00
4054;DHT22;2042;47.956;9.222;2022-10-20T16:56:42;12.70;5.30
4054;DHT22;2042;47.956;9.222;2022-10-20T16:59:10;12.70;6.50
4054;DHT22;2042;47.956;9.222;2022-10-20T17:01:36;12.60;7.00
4054;DHT22;2042;47.956;9.222;2022-10-20T17:04:01;12.50;7.70
4054;DHT22;2042;47.956;9.222;2022-10-20T17:06:27;12.40;9.00
4054;DHT22;2042;47.956;9.222;2022-10-20T17:08:53;12.40;10.30
4054;DHT22;2042;47.956;9.222;2022-10-20T17:11:23;12.40;10.70
4054;DHT22;2042;47.956;9.222;2022-10-20T17:13:49;12.30;11.60
4054;DHT22;2042;47.956;9.222;2022-10-20T17:16:24;12.30;12.80
4054;DHT22;2042;47.956;9.222;2022-10-20T17:18:51;12.30;13.50
4054;DHT22;2042;47.956;9.222;2022-10-20T17:21:17;12.30;14.40
4054;DHT22;2042;47.956;9.222;2022-10-20T17:23:43;12.30;14.70
4054;DHT22;2042;47.956;9.222;2022-10-20T17:26:15;12.30;15.50
4054;DHT22;2042;47.956;9.222;2022-10-20T17:28:41;12.20;15.90
4054;DHT22;2042;47.956;9.222;2022-10-20T17:31:09;12.20;16.60
4054;DHT22;2042;47.956;9.222;2022-10-20T17:33:36;12.20;17.40
4054;DHT22;2042;47.956;9.222;2022-10-20T17:36:02;12.20;17.50
4054;DHT22;2042;47.956;9.222;2022-10-20T17:38:29;12.20;17.60
4054;DHT22;2042;47.956;9.222;2022-10-20T17:40:55;12.10;17.60
4054;DHT22;2042;47.956;9.222;2022-10-20T17:43:21;12.10;17.90
4054;DHT22;2042;47.956;9.222;2022-10-20T17:45:58;12.10;18.10
4054;DHT22;2042;47.956;9.222;2022-10-20T17:48:24;12.10;18.60
4054;DHT22;2042;47.956;9.222;2022-10-20T17:51:12;12.10;19.20
4054;DHT22;2042;47.956;9.222;2022-10-20T17:53:40;12.20;19.70
4054;DHT22;2042;47.956;9.222;2022-10-20T17:56:11;12.10;19.90
4054;DHT22;2042;47.956;9.222;2022-10-20T17:58:38;12.20;20.30
4054;DHT22;2042;47.956;9.222;2022-10-20T18:03:36;12.30;20.90
4054;DHT22;2042;47.956;9.222;2022-10-20T18:06:21;12.30;21.10
4054;DHT22;2042;47.956;9.222;2022-10-20T18:08:47;12.40;21.20
4054;DHT22;2042;47.956;9.222;2022-10-20T18:11:14;12.40;21.10
4054;DHT22;2042;47.956;9.222;2022-10-20T18:13:40;12.40;21.00
4054;DHT22;2042;47.956;9.222;2022-10-20T18:16:08;12.50;21.00
4054;DHT22;2042;47.956;9.222;2022-10-20T18:18:34;12.50;21.00
4054;DHT22;2042;47.956;9.222;2022-10-20T18:21:01;12.50;21.10
4054;DHT22;2042;47.956;9.222;2022-10-20T18:23:27;12.50;21.20
4054;DHT22;2042;47.956;9.222;2022-10-20T18:25:55;12.50;21.30
4054;DHT22;2042;47.956;9.222;2022-10-20T18:28:22;12.40;21.40
4054;DHT22;2042;47.956;9.222;2022-10-20T18:30:49;12.40;21.40
4054;DHT22;2042;47.956;9.222;2022-10-20T18:33:16;12.40;22.00
4054;DHT22;2042;47.956;9.222;2022-10-20T18:35:42;12.40;21.70
4054;DHT22;2042;47.956;9.222;2022-10-20T18:38:07;12.40;21.80
4054;DHT22;2042;47.956;9.222;2022-10-20T18:40:33;12.40;21.90
4054;DHT22;2042;47.956;9.222;2022-10-20T18:42:58;12.30;21.90
4054;DHT22;2042;47.956;9.222;2022-10-20T18:45:27;12.30;21.90
4054;DHT22;2042;47.956;9.222;2022-10-20T18:47:53;12.30;22.00
4054;DHT22;2042;47.956;9.222;2022-10-20T18:50:19;12.30;22.00
4054;DHT22;2042;47.956;9.222;2022-10-20T18:52:45;12.30;21.90
4054;DHT22;2042;47.956;9.222;2022-10-20T18:55:10;12.20;21.80
4054;DHT22;2042;47.956;9.222;2022-10-20T18:57:36;12.30;22.00
4054;DHT22;2042;47.956;9.222;2022-10-20T19:00:06;12.20;22.20
4054;DHT22;2042;47.956;9.222;2022-10-20T19:02:33;12.20;22.50
4054;DHT22;2042;47.956;9.222;2022-10-20T19:05:03;12.30;22.80
4054;DHT22;2042;47.956;9.222;2022-10-20T19:07:31;12.30;23.00
4054;DHT22;2042;47.956;9.222;2022-10-20T19:09:58;12.30;23.10
4054;DHT22;2042;47.956;9.222;2022-10-20T19:12:23;12.30;23.20
4054;DHT22;2042;47.956;9.222;2022-10-20T19:14:49;12.30;23.30
4054;DHT22;2042;47.956;9.222;2022-10-20T19:17:16;12.30;23.40
4054;DHT22;2042;47.956;9.222;2022-10-20T19:19:42;12.30;23.40
4054;DHT22;2042;47.956;9.222;2022-10-20T19:22:09;12.30;23.60
4054;DHT22;2042;47.956;9.222;2022-10-20T19:24:34;12.30;23.70
4054;DHT22;2042;47.956;9.222;2022-10-20T19:27:05;12.30;23.80
4054;DHT22;2042;47.956;9.222;2022-10-20T19:29:30;12.30;23.90
4054;DHT22;2042;47.956;9.222;2022-10-20T19:31:59;12.30;24.00
4054;DHT22;2042;47.956;9.222;2022-10-20T19:34:28;12.30;24.10
4054;DHT22;2042;47.956;9.222;2022-10-20T19:36:54;12.30;24.20
4054;DHT22;2042;47.956;9.222;2022-10-20T19:39:23;12.30;24.30
4054;DHT22;2042;47.956;9.222;2022-10-20T19:41:52;12.30;24.50
4054;DHT22;2042;47.956;9.222;2022-10-20T19:44:19;12.30;24.60
4054;DHT22;2042;47.956;9.222;2022-10-20T19:46:46;12.30;24.70
4054;DHT22;2042;47.956;9.222;2022-10-20T19:49:12;12.30;24.80
4054;DHT22;2042;47.956;9.222;2022-10-20T19:51:39;12.30;24.80
4054;DHT22;2042;47.956;9.222;2022-10-20T19:54:05;12.30;24.80
4054;DHT22;2042;47.956;9.222;2022-10-20T19:56:31;12.30;24.90
4054;DHT22;2042;47.956;9.222;2022-10-20T19:58:57;12.30;24.90
4054;DHT22;2042;47.956;9.222;2022-10-20T20:01:23;12.30;24.90
4054;DHT22;2042;47.956;9.222;2022-10-20T20:03:49;12.30;25.00
4054;DHT22;2042;47.956;9.222;2022-10-20T20:06:18;12.30;25.00
4054;DHT22;2042;47.956;9.222;2022-10-20T20:08:47;12.20;25.00
4054;DHT22;2042;47.956;9.222;2022-10-20T20:11:13;12.20;25.10
4054;DHT22;2042;47.956;9.222;2022-10-20T20:13:49;12.20;25.20
4054;DHT22;2042;47.956;9.222;2022-10-20T20:16:15;12.30;25.30
4054;DHT22;2042;47.956;9.222;2022-10-20T20:18:41;12.20;25.30
4054;DHT22;2042;47.956;9.222;2022-10-20T20:21:06;12.20;25.30
4054;DHT22;2042;47.956;9.222;2022-10-20T20:23:32;12.20;25.30
4054;DHT22;2042;47.956;9.222;2022-10-20T20:26:03;12.20;25.30
4054;DHT22;2042;47.956;9.222;2022-10-20T20:28:29;12.20;25.40
4054;DHT22;2042;47.956;9.222;2022-10-20T20:31:07;12.20;25.40
4054;DHT22;2042;47.956;9.222;2022-10-20T20:33:33;12.20;25.40
4054;DHT22;2042;47.956;9.222;2022-10-20T20:36:04;12.20;25.40
4054;DHT22;2042;47.956;9.222;2022-10-20T20:38:32;12.20;25.40
4054;DHT22;2042;47.956;9.222;2022-10-20T20:40:59;12.10;25.40
4054;DHT22;2042;47.956;9.222;2022-10-20T20:43:25;12.10;25.40
4054;DHT22;2042;47.956;9.222;2022-10-20T20:45:51;12.10;25.40
4054;DHT22;2042;47.956;9.222;2022-10-20T20:48:17;12.10;25.40
4054;DHT22;2042;47.956;9.222;2022-10-20T20:50:53;12.10;25.40
4054;DHT22;2042;47.956;9.222;2022-10-20T20:53:19;12.00;25.30
4054;DHT22;2042;47.956;9.222;2022-10-20T20:58:28;11.90;25.20
4054;DHT22;2042;47.956;9.222;2022-10-20T21:03:30;11.80;25.20
4054;DHT22;2042;47.956;9.222;2022-10-20T21:05:57;11.80;25.20
4054;DHT22;2042;47.956;9.222;2022-10-20T21:08:26;11.80;25.20
4054;DHT22;2042;47.956;9.222;2022-10-20T21:10:52;11.80;25.20
4054;DHT22;2042;47.956;9.222;2022-10-20T21:13:17;11.80;25.20
4054;DHT22;2042;47.956;9.222;2022-10-20T21:15:43;11.70;25.70
4054;DHT22;2042;47.956;9.222;2022-10-20T21:18:09;11.70;25.60
4054;DHT22;2042;47.956;9.222;2022-10-20T21:20:34;11.70;25.60
4054;DHT22;2042;47.956;9.222;2022-10-20T21:23:00;11.60;25.50
4054;DHT22;2042;47.956;9.222;2022-10-20T21:25:26;11.60;25.50
4054;DHT22;2042;47.956;9.222;2022-10-20T21:27:52;11.60;25.50
4054;DHT22;2042;47.956;9.222;2022-10-20T21:30:17;11.60;25.60
4054;DHT22;2042;47.956;9.222;2022-10-20T21:32:43;11.50;25.50